Time;durP1;ratioP1;P1;durP2;ratioP2;P2;SDS_P1;SDS_P2;PMS_P1;PMS_P2;Temp;Humidity;BMP_temperature;BMP_pressure;BME280_temperature;BME280_humidity;BME280_pressure;Samples;Min_cycle;Max_cycle;Signal;HPM_P1;HPM_P2
2023/06/09 00:01:39;;;;;;;;;;;;;;;15.74;82.27;100409.53;5096281;28;20281;-79
2023/06/09 00:04:44;;;;;;;;;;;;;;;15.57;84.08;100418.66;5096012;28;19939;-79
2023/06/09 00:07:47;;;;;;;;;;;;;;;15.53;84.83;100427.75;5095914;28;19922;-79
2023/06/09 00:10:51;;;;;;;;;;;;;;;15.48;85.39;100422.00;5095015;28;19973;-79
2023/06/09 00:13:53;;;;;;;;;;;;;;;15.52;85.27;100424.28;5095762;28;20299;-79
2023/06/09 00:16:59;;;;;;;;;;;;;;;15.53;85.41;100430.38;5095647;28;19985;-79
2023/06/09 00:20:03;;;;;;;;;;;;;;;15.45;86.07;100448.59;5096082;28;20378;-79
2023/06/09 00:23:07;;;;;;;;;;;;;;;15.63;85.09;100447.19;5106601;28;19950;-78
2023/06/09 00:26:11;;;;;;;;;;;;;;;15.43;85.48;100451.31;5095917;28;19970;-78
2023/06/09 00:29:16;;;;;;;;;;;;;;;15.44;84.85;100452.97;5094585;28;20387;-78
2023/06/09 00:32:19;;;;;;;;;;;;;;;15.56;83.65;100446.81;5094661;28;20341;-78
2023/06/09 00:35:23;;;;;;;;;;;;;;;15.58;82.32;100437.00;5095406;28;19923;-78
2023/06/09 00:38:27;;;;;;;;;;;;;;;15.37;83.98;100446.50;5095393;28;20034;-78
2023/06/09 00:41:34;;;;;;;;;;;;;;;15.46;83.23;100439.72;5095345;28;19989;-79
2023/06/09 00:44:37;;;;;;;;;;;;;;;15.50;82.23;100436.72;5094492;28;20404;-78
2023/06/09 00:47:40;;;;;;;;;;;;;;;15.25;83.31;100437.72;5095350;28;19923;-78
2023/06/09 00:50:44;;;;;;;;;;;;;;;14.98;84.15;100448.44;5094947;28;21000;-78
2023/06/09 00:53:47;;;;;;;;;;;;;;;14.95;84.78;100443.41;5095009;28;20424;-78
2023/06/09 00:56:50;;;;;;;;;;;;;;;15.12;83.62;100447.44;5094292;28;19923;-78
2023/06/09 00:59:53;;;;;;;;;;;;;;;15.17;82.99;100457.66;5094099;28;19942;-78
2023/06/09 01:03:00;;;;;;;;;;;;;;;14.98;83.86;100458.13;5094236;28;19943;-78
2023/06/09 01:06:09;;;;;;;;;;;;;;;14.88;84.27;100460.59;5095195;28;19923;-78
2023/06/09 01:09:12;;;;;;;;;;;;;;;14.90;84.13;100463.97;5094857;28;20336;-78
2023/06/09 01:12:39;;;;;;;;;;;;;;;14.92;84.35;100469.09;5093938;28;19970;-78
2023/06/09 01:15:45;;;;;;;;;;;;;;;14.74;84.77;100464.22;5093713;28;19926;-78
2023/06/09 01:18:49;;;;;;;;;;;;;;;14.73;85.09;100461.66;5094482;28;19922;-78
2023/06/09 01:21:53;;;;;;;;;;;;;;;14.66;85.42;100463.91;5094360;28;20009;-78
2023/06/09 01:25:17;;;;;;;;;;;;;;;14.97;84.11;100462.56;5093779;28;19969;-78
2023/06/09 01:28:23;;;;;;;;;;;;;;;15.03;83.54;100453.41;5082022;28;20013;-77
2023/06/09 01:31:27;;;;;;;;;;;;;;;14.80;84.56;100457.66;5093393;28;20444;-77
2023/06/09 01:34:30;;;;;;;;;;;;;;;14.85;84.73;100460.81;5094271;28;19927;-77
2023/06/09 01:37:33;;;;;;;;;;;;;;;14.94;84.90;100454.06;5094263;28;19923;-78
2023/06/09 01:40:37;;;;;;;;;;;;;;;14.81;84.67;100454.91;5093350;28;19923;-78
2023/06/09 01:43:40;;;;;;;;;;;;;;;14.71;85.13;100450.41;5093123;28;19962;-78
2023/06/09 01:46:43;;;;;;;;;;;;;;;14.66;85.63;100456.00;5093913;28;19927;-78
2023/06/09 01:49:47;;;;;;;;;;;;;;;14.76;85.10;100453.56;5093910;28;20057;-78
2023/06/09 01:52:53;;;;;;;;;;;;;;;14.73;85.57;100454.63;5093806;28;19926;-78
2023/06/09 01:56:01;;;;;;;;;;;;;;;14.71;85.92;100459.16;5092929;28;19923;-78
2023/06/09 01:59:07;;;;;;;;;;;;;;;14.55;86.99;100466.41;5092950;28;19989;-78
2023/06/09 02:02:11;;;;;;;;;;;;;;;14.49;87.33;100458.94;5093936;28;19923;-78
2023/06/09 02:05:15;;;;;;;;;;;;;;;14.40;87.71;100463.06;5092863;28;19970;-78
2023/06/09 02:08:19;;;;;;;;;;;;;;;14.38;88.47;100462.31;5093100;28;19923;-78
2023/06/09 02:11:22;;;;;;;;;;;;;;;14.31;88.97;100466.31;5092645;28;20019;-78
2023/06/09 02:14:33;;;;;;;;;;;;;;;14.18;89.48;100461.91;5093877;28;20015;-78
2023/06/09 02:17:36;;;;;;;;;;;;;;;14.14;89.16;100457.78;5092502;28;19969;-77
2023/06/09 02:20:40;;;;;;;;;;;;;;;14.18;89.26;100459.25;5092501;28;19922;-77
2023/06/09 02:23:43;;;;;;;;;;;;;;;14.18;89.44;100453.16;5092488;28;20278;-77
2023/06/09 02:26:49;;;;;;;;;;;;;;;14.09;90.12;100449.38;5093377;28;19970;-77
2023/06/09 02:29:52;;;;;;;;;;;;;;;14.04;89.93;100442.72;5093247;28;20011;-77
2023/06/09 02:33:01;;;;;;;;;;;;;;;14.05;89.67;100441.81;5093317;28;19927;-77
2023/06/09 02:36:04;;;;;;;;;;;;;;;13.96;89.45;100438.84;5092467;28;19923;-77
2023/06/09 02:39:08;;;;;;;;;;;;;;;13.99;89.17;100440.44;5092311;28;20286;-77
2023/06/09 02:42:12;;;;;;;;;;;;;;;13.98;89.27;100436.13;5093402;28;19927;-78
2023/06/09 02:45:15;;;;;;;;;;;;;;;13.97;89.01;100437.06;5093267;28;19927;-78
2023/06/09 02:48:18;;;;;;;;;;;;;;;13.98;88.79;100440.56;5092261;28;19969;-78
2023/06/09 02:51:22;;;;;;;;;;;;;;;13.96;88.71;100443.25;5092797;28;20294;-78
2023/06/09 02:54:26;;;;;;;;;;;;;;;14.01;88.20;100449.06;5093146;28;20326;-77
2023/06/09 02:57:29;;;;;;;;;;;;;;;14.01;88.12;100448.19;5092182;28;19927;-77
2023/06/09 03:00:33;;;;;;;;;;;;;;;14.14;86.87;100449.91;5091937;28;19923;-77
2023/06/09 03:03:39;;;;;;;;;;;;;;;14.04;87.67;100454.13;5092330;28;20443;-77
2023/06/09 03:06:43;;;;;;;;;;;;;;;14.13;86.90;100450.00;5092079;28;19923;-77
2023/06/09 03:09:49;;;;;;;;;;;;;;;13.97;87.73;100468.59;5103857;28;19927;-77
2023/06/09 03:12:54;;;;;;;;;;;;;;;13.87;88.33;100454.41;5092137;28;19973;-77
2023/06/09 03:15:58;;;;;;;;;;;;;;;13.80;88.38;100458.38;5092148;28;20012;-77
2023/06/09 03:19:07;;;;;;;;;;;;;;;13.84;88.41;100457.22;5103750;28;20021;-77
2023/06/09 03:22:11;;;;;;;;;;;;;;;13.77;89.27;100455.97;5091848;28;20406;-77
2023/06/09 03:25:16;;;;;;;;;;;;;;;13.83;88.68;100463.44;5092166;28;19923;-77
2023/06/09 03:28:20;;;;;;;;;;;;;;;13.79;88.02;100459.34;5092786;28;19969;-77
2023/06/09 03:31:23;;;;;;;;;;;;;;;13.51;89.10;100458.53;5091639;28;20023;-76
2023/06/09 03:34:26;;;;;;;;;;;;;;;13.53;89.56;100466.28;5094767;28;20333;-77
2023/06/09 03:37:34;;;;;;;;;;;;;;;13.60;88.70;100460.56;5107499;28;19923;-76
2023/06/09 03:40:37;;;;;;;;;;;;;;;13.64;88.88;100462.03;5095981;28;19924;-76
2023/06/09 03:43:42;;;;;;;;;;;;;;;13.81;87.19;100462.69;5095474;28;19942;-77
2023/06/09 03:46:45;;;;;;;;;;;;;;;13.77;87.27;100469.94;5095600;28;19923;-77
2023/06/09 03:49:49;;;;;;;;;;;;;;;13.62;87.63;100463.91;5095537;28;20030;-77
2023/06/09 03:52:52;;;;;;;;;;;;;;;13.58;87.93;100467.69;5095365;28;19943;-77
2023/06/09 03:55:55;;;;;;;;;;;;;;;13.60;88.23;100470.22;5096218;28;20023;-77
2023/06/09 03:58:59;;;;;;;;;;;;;;;13.45;88.53;100477.31;5096254;28;19970;-78
2023/06/09 04:02:03;;;;;;;;;;;;;;;13.40;88.99;100459.25;5095371;28;19962;-77
2023/06/09 04:05:10;;;;;;;;;;;;;;;13.47;88.14;100468.41;5095261;28;19923;-77
2023/06/09 04:08:13;;;;;;;;;;;;;;;13.45;87.83;100461.56;5096086;28;20489;-78
2023/06/09 04:11:17;;;;;;;;;;;;;;;13.44;87.68;100468.59;5095264;28;19965;-78
2023/06/09 04:14:20;;;;;;;;;;;;;;;13.34;88.31;100469.31;5095005;28;19923;-78
2023/06/09 04:17:25;;;;;;;;;;;;;;;13.46;87.66;100471.09;5095080;28;20379;-78
2023/06/09 04:20:29;;;;;;;;;;;;;;;13.60;86.96;100471.06;5095027;28;20398;-78
2023/06/09 04:23:34;;;;;;;;;;;;;;;13.68;86.71;100467.91;5095115;28;20444;-78
2023/06/09 04:26:39;;;;;;;;;;;;;;;13.59;86.78;100477.28;5094944;28;19923;-79
2023/06/09 04:29:44;;;;;;;;;;;;;;;13.44;87.16;100465.13;5094794;28;19962;-78
2023/06/09 04:32:50;;;;;;;;;;;;;;;13.43;87.36;100468.69;5094729;28;19989;-78
2023/06/09 04:35:54;;;;;;;;;;;;;;;13.62;86.66;100463.91;5094812;28;19923;-78
2023/06/09 04:39:03;;;;;;;;;;;;;;;13.60;86.37;100463.19;5083840;28;19989;-77
2023/06/09 04:42:07;;;;;;;;;;;;;;;13.88;85.08;100470.06;5094758;28;19929;-78
2023/06/09 04:45:13;;;;;;;;;;;;;;;13.86;84.60;100468.50;5094932;28;20406;-77
2023/06/09 04:48:17;;;;;;;;;;;;;;;14.02;83.24;100471.78;5094435;28;19960;-78
2023/06/09 04:51:24;;;;;;;;;;;;;;;13.83;83.95;100469.53;5093942;28;19927;-78
2023/06/09 04:54:29;;;;;;;;;;;;;;;13.77;84.26;100463.84;5094293;28;19981;-78
2023/06/09 04:57:34;;;;;;;;;;;;;;;13.74;84.81;100464.88;5094205;28;19938;-79
2023/06/09 05:00:39;;;;;;;;;;;;;;;14.03;83.46;100468.19;5094105;28;20325;-79
2023/06/09 05:03:45;;;;;;;;;;;;;;;14.11;82.49;100472.94;5094061;28;19923;-79
2023/06/09 05:06:49;;;;;;;;;;;;;;;14.15;82.03;100477.88;5094068;28;19923;-79
2023/06/09 05:09:52;;;;;;;;;;;;;;;14.15;82.36;100472.63;5094824;28;20386;-79
2023/06/09 05:12:56;;;;;;;;;;;;;;;14.28;82.00;100483.16;5093915;28;20306;-78
2023/06/09 05:15:59;;;;;;;;;;;;;;;14.37;81.30;100481.69;5093974;28;19927;-78
2023/06/09 05:19:03;;;;;;;;;;;;;;;14.39;80.68;100479.78;5093755;28;20436;-78
2023/06/09 05:22:06;;;;;;;;;;;;;;;14.36;81.23;100474.75;5094494;28;19981;-78
2023/06/09 05:25:09;;;;;;;;;;;;;;;14.35;81.43;100479.13;5094425;28;19961;-78
2023/06/09 05:28:12;;;;;;;;;;;;;;;14.23;82.94;100473.88;5093651;28;20283;-77
2023/06/09 05:31:19;;;;;;;;;;;;;;;14.29;83.20;100471.66;5094319;28;19988;-77
2023/06/09 05:34:22;;;;;;;;;;;;;;;14.25;84.14;100478.09;5093448;28;20286;-77
2023/06/09 05:37:26;;;;;;;;;;;;;;;14.32;83.99;100478.50;5093427;28;19927;-77
2023/06/09 05:40:30;;;;;;;;;;;;;;;14.49;84.49;100480.84;5093266;28;19958;-77
2023/06/09 05:43:32;;;;;;;;;;;;;;;14.67;84.16;100477.88;5094113;28;20008;-77
2023/06/09 05:46:38;;;;;;;;;;;;;;;14.79;84.34;100487.56;5094035;28;19941;-77
2023/06/09 05:49:41;;;;;;;;;;;;;;;14.86;84.08;100488.81;5093935;28;19939;-77
2023/06/09 05:52:44;;;;;;;;;;;;;;;14.94;84.73;100483.84;5093847;28;19927;-75
2023/06/09 05:55:49;;;;;;;;;;;;;;;15.05;86.11;100483.91;5093287;28;19927;-77
2023/06/09 05:59:02;;;;;;;;;;;;;;;15.22;85.54;100481.84;5093857;28;19923;-76
2023/06/09 06:02:05;;;;;;;;;;;;;;;15.38;84.87;100482.44;5093729;28;19949;-80
2023/06/09 06:05:09;;;;;;;;;;;;;;;15.53;85.11;100486.56;5093825;28;19923;-77
2023/06/09 06:08:12;;;;;;;;;;;;;;;15.53;85.48;100488.38;5094082;28;19942;-77
2023/06/09 06:11:16;;;;;;;;;;;;;;;15.57;85.83;100495.94;5093613;28;19931;-76
2023/06/09 06:14:19;;;;;;;;;;;;;;;15.67;85.27;100501.41;5092828;28;19939;-80
2023/06/09 06:17:22;;;;;;;;;;;;;;;15.80;84.58;100490.81;5093769;28;19926;-79
2023/06/09 06:20:25;;;;;;;;;;;;;;;15.92;86.01;100495.16;5093509;28;19945;-79
2023/06/09 06:23:28;;;;;;;;;;;;;;;16.03;84.69;100500.44;5093549;28;20346;-79
2023/06/09 06:26:31;;;;;;;;;;;;;;;16.18;83.89;100502.91;5093429;28;19962;-84
2023/06/09 06:29:38;;;;;;;;;;;;;;;16.31;83.56;100500.16;5093454;28;20426;-85
2023/06/09 06:32:51;;;;;;;;;;;;;;;16.40;84.43;100500.31;5093322;28;19949;-77
2023/06/09 06:35:54;;;;;;;;;;;;;;;16.50;84.62;100497.78;5093364;28;20290;-78
2023/06/09 06:38:57;;;;;;;;;;;;;;;16.61;83.43;100496.94;5093339;28;19922;-79
2023/06/09 06:42:00;;;;;;;;;;;;;;;16.70;82.75;100491.78;5093173;28;19962;-79
2023/06/09 06:45:11;;;;;;;;;;;;;;;16.82;82.69;100489.19;5092343;28;20008;-80
2023/06/09 06:48:14;;;;;;;;;;;;;;;16.89;82.75;100485.09;5093257;28;19923;-79
2023/06/09 06:51:17;;;;;;;;;;;;;;;16.94;81.80;100483.78;5092886;28;19935;-81
2023/06/09 06:54:21;;;;;;;;;;;;;;;16.98;81.11;100475.59;5093075;28;19923;-81
2023/06/09 06:57:24;;;;;;;;;;;;;;;17.04;81.10;100478.59;5092993;28;19969;-82
2023/06/09 07:00:27;;;;;;;;;;;;;;;17.14;79.97;100476.88;5092929;28;19951;-80
2023/06/09 07:03:33;;;;;;;;;;;;;;;17.25;79.89;100483.94;5093017;28;19981;-82
2023/06/09 07:06:38;;;;;;;;;;;;;;;17.31;78.90;100482.59;5093274;28;20344;-80
2023/06/09 07:09:41;;;;;;;;;;;;;;;17.37;79.25;100475.00;5096991;28;20333;-78
2023/06/09 07:12:44;;;;;;;;;;;;;;;17.48;79.18;100474.13;5096880;28;19926;-79
2023/06/09 07:15:47;;;;;;;;;;;;;;;17.58;78.32;100475.06;5096240;28;19977;-81
2023/06/09 07:18:51;;;;;;;;;;;;;;;17.71;79.06;100471.38;5096901;28;20295;-81
2023/06/09 07:21:54;;;;;;;;;;;;;;;17.81;78.42;100473.19;5097200;28;19969;-80
2023/06/09 07:24:58;;;;;;;;;;;;;;;17.87;77.93;100477.13;5096773;28;20414;-80
2023/06/09 07:28:04;;;;;;;;;;;;;;;17.92;76.93;100474.09;5096724;28;20378;-79
2023/06/09 07:31:08;;;;;;;;;;;;;;;17.98;76.57;100468.28;5096626;28;19928;-80
2023/06/09 07:34:11;;;;;;;;;;;;;;;18.08;76.84;100471.81;5096612;28;19942;-80
2023/06/09 07:37:14;;;;;;;;;;;;;;;18.18;76.15;100464.78;5095832;28;19923;-81
2023/06/09 07:40:20;;;;;;;;;;;;;;;18.25;75.98;100465.97;5096573;28;20358;-80
2023/06/09 07:43:23;;;;;;;;;;;;;;;18.38;75.05;100470.19;5096348;28;19923;-80
2023/06/09 07:46:26;;;;;;;;;;;;;;;18.43;73.94;100473.28;5096403;28;19923;-81
2023/06/09 07:49:29;;;;;;;;;;;;;;;18.56;73.37;100465.94;5096294;28;20299;-80
2023/06/09 07:52:33;;;;;;;;;;;;;;;18.60;73.74;100467.34;5096008;28;19927;-81
2023/06/09 07:55:36;;;;;;;;;;;;;;;18.81;72.71;100462.03;5096171;28;19927;-78
2023/06/09 07:58:39;;;;;;;;;;;;;;;18.99;72.03;100465.72;5096112;28;20425;-78
2023/06/09 08:01:43;;;;;;;;;;;;;;;19.02;71.63;100468.09;5096011;28;20073;-80
2023/06/09 08:04:47;;;;;;;;;;;;;;;19.11;70.94;100463.75;5095963;28;20027;-84
2023/06/09 08:07:51;;;;;;;;;;;;;;;19.15;71.17;100462.53;5095995;28;20398;-80
2023/06/09 08:11:00;;;;;;;;;;;;;;;19.12;69.92;100462.81;5095233;28;19924;-79
2023/06/09 08:14:06;;;;;;;;;;;;;;;19.25;69.75;100454.59;5095198;28;20307;-87
2023/06/09 08:21:04;;;;;;;;;;;;;;;19.55;68.30;100452.78;4253845;26;19929;-87
2023/06/09 08:24:42;;;;;;;;;;;;;;;19.68;69.13;100448.91;5015809;28;20292;-82
2023/06/09 08:27:46;;;;;;;;;;;;;;;19.91;66.67;100456.56;5015739;28;19970;-82
2023/06/09 08:30:51;;;;;;;;;;;;;;;19.94;67.64;100445.66;5015577;28;19925;-78
2023/06/09 08:33:54;;;;;;;;;;;;;;;20.20;67.93;100446.72;5014791;28;19925;-83
2023/06/09 08:36:57;;;;;;;;;;;;;;;20.44;66.87;100443.56;5015433;28;20009;-79
2023/06/09 08:40:04;;;;;;;;;;;;;;;20.65;66.11;100446.03;5014972;28;19972;-79
2023/06/09 08:43:07;;;;;;;;;;;;;;;20.65;66.23;100435.41;5015421;28;19924;-79
2023/06/09 08:46:11;;;;;;;;;;;;;;;20.69;66.33;100430.63;5015151;28;19923;-80
2023/06/09 08:49:16;;;;;;;;;;;;;;;20.69;67.47;100432.44;5014512;28;20449;-81
2023/06/09 08:52:19;;;;;;;;;;;;;;;20.91;64.93;100424.06;5014519;28;20021;-82
2023/06/09 08:55:23;;;;;;;;;;;;;;;20.95;64.24;100425.44;5015280;28;19924;-82
2023/06/09 08:58:30;;;;;;;;;;;;;;;21.20;64.47;100423.03;5015055;28;19940;-78
2023/06/09 09:01:35;;;;;;;;;;;;;;;21.52;63.01;100422.53;5014947;28;19924;-79
2023/06/09 09:04:42;;;;;;;;;;;;;;;21.49;63.42;100418.34;5014887;28;20392;-80
2023/06/09 09:07:46;;;;;;;;;;;;;;;21.48;61.47;100406.03;5014754;28;19940;-79
2023/06/09 09:10:52;;;;;;;;;;;;;;;21.48;62.96;100399.88;5014589;28;19925;-79
2023/06/09 09:13:55;;;;;;;;;;;;;;;21.71;61.40;100401.06;5015304;28;19991;-80
2023/06/09 09:16:58;;;;;;;;;;;;;;;21.82;60.17;100402.63;5014627;28;20385;-79
2023/06/09 09:20:06;;;;;;;;;;;;;;;22.22;58.96;100394.09;5013774;28;20340;-80
2023/06/09 09:23:16;;;;;;;;;;;;;;;22.29;55.92;100400.44;5014657;28;20028;-79
2023/06/09 09:26:45;;;;;;;;;;;;;;;22.39;54.50;100386.16;5014588;28;19940;-86
2023/06/09 09:29:49;;;;;;;;;;;;;;;22.46;54.99;100395.19;5014326;28;19929;-79
2023/06/09 09:32:53;;;;;;;;;;;;;;;22.83;54.32;100389.47;5014139;28;19929;-80
2023/06/09 09:35:58;;;;;;;;;;;;;;;22.85;54.16;100389.31;5014289;28;20009;-80
2023/06/09 09:39:05;;;;;;;;;;;;;;;22.77;54.96;100395.47;5014655;28;19972;-80
2023/06/09 09:42:10;;;;;;;;;;;;;;;22.76;54.48;100380.47;5014407;28;19960;-79
2023/06/09 09:45:24;;;;;;;;;;;;;;;22.93;54.33;100381.34;5014090;28;19940;-79
2023/06/09 09:48:28;;;;;;;;;;;;;;;22.88;53.89;100378.34;5014129;28;19984;-79
2023/06/09 09:51:32;;;;;;;;;;;;;;;23.08;55.02;100371.72;5014184;28;20417;-79
2023/06/09 09:54:36;;;;;;;;;;;;;;;23.26;52.81;100371.59;5014042;28;19924;-79
2023/06/09 09:57:39;;;;;;;;;;;;;;;23.34;51.53;100362.75;5014038;28;20269;-81
2023/06/09 10:00:44;;;;;;;;;;;;;;;23.26;52.65;100363.59;5013873;28;19944;-76
2023/06/09 10:03:48;;;;;;;;;;;;;;;23.39;51.99;100353.25;5013027;28;19971;-76
2023/06/09 10:07:01;;;;;;;;;;;;;;;23.61;51.39;100353.53;5013836;28;19972;-78
2023/06/09 10:10:08;;;;;;;;;;;;;;;24.07;49.65;100349.28;5013970;28;19971;-75
2023/06/09 10:13:12;;;;;;;;;;;;;;;24.07;47.87;100351.13;5013986;28;19928;-76
2023/06/09 10:16:16;;;;;;;;;;;;;;;23.97;45.53;100343.31;5013668;28;19924;-76
2023/06/09 10:19:23;;;;;;;;;;;;;;;23.77;47.72;100342.88;5013404;28;20011;-77
2023/06/09 10:22:26;;;;;;;;;;;;;;;24.09;45.95;100349.09;5013616;28;19940;-76
2023/06/09 10:25:29;;;;;;;;;;;;;;;24.24;46.38;100350.06;5013930;28;20316;-76
2023/06/09 10:28:32;;;;;;;;;;;;;;;24.05;44.81;100340.59;5013339;28;19925;-76
2023/06/09 10:31:40;;;;;;;;;;;;;;;24.04;45.27;100333.59;5013363;28;19976;-76
2023/06/09 10:34:46;;;;;;;;;;;;;;;24.14;45.67;100336.06;5013401;28;19924;-79
2023/06/09 10:37:50;;;;;;;;;;;;;;;24.23;44.35;100327.03;5013251;28;19964;-77
2023/06/09 10:41:03;;;;;;;;;;;;;;;24.33;45.06;100326.81;5001292;28;19924;-76
2023/06/09 10:44:20;;;;;;;;;;;;;;;24.65;43.65;100317.00;5013085;28;20344;-76
2023/06/09 10:47:47;;;;;;;;;;;;;;;24.75;43.39;100315.75;5012937;28;19971;-76
2023/06/09 10:50:53;;;;;;;;;;;;;;;24.87;42.12;100307.31;5012788;28;19924;-76
2023/06/09 10:54:15;;;;;;;;;;;;;;;24.73;42.57;100311.56;5012970;28;20217;-77
2023/06/09 10:57:35;;;;;;;;;;;;;;;25.05;41.74;100302.50;5013910;28;19928;-76
2023/06/09 11:00:57;;;;;;;;;;;;;;;25.14;41.29;100304.09;5013765;28;19967;-77
2023/06/09 11:04:25;;;;;;;;;;;;;;;25.32;40.64;100300.28;5013676;28;19924;-77
2023/06/09 11:07:47;;;;;;;;;;;;;;;25.15;41.81;100308.47;5013687;28;20013;-77
2023/06/09 11:10:50;;;;;;;;;;;;;;;25.22;40.15;100300.53;5013184;28;19940;-77
2023/06/09 11:13:54;;;;;;;;;;;;;;;25.21;40.70;100305.06;5012923;28;20005;-77
2023/06/09 11:17:15;;;;;;;;;;;;;;;25.50;39.89;100306.97;5012653;28;20016;-76
2023/06/09 11:20:23;;;;;;;;;;;;;;;25.61;39.70;100303.00;5010699;28;20627;-76
2023/06/09 11:23:29;;;;;;;;;;;;;;;25.61;39.33;100294.97;5012804;28;19924;-76
2023/06/09 11:26:37;;;;;;;;;;;;;;;25.55;39.06;100279.63;5012769;28;19925;-76
2023/06/09 11:29:40;;;;;;;;;;;;;;;25.91;39.48;100290.47;5012625;28;19924;-76
2023/06/09 11:32:46;;;;;;;;;;;;;;;26.18;38.10;100291.63;5012677;28;20339;-76
2023/06/09 11:35:49;;;;;;;;;;;;;;;25.91;38.47;100285.13;5012756;28;19950;-77
2023/06/09 11:38:58;;;;;;;;;;;;;;;25.93;39.33;100280.41;5012566;28;19971;-76
2023/06/09 11:42:06;;;;;;;;;;;;;;;26.08;39.01;100275.03;5012622;28;19933;-77
2023/06/09 11:45:13;;;;;;;;;;;;;;;26.14;38.56;100278.81;5012554;28;19925;-71
2023/06/09 11:48:19;;;;;;;;;;;;;;;26.24;38.24;100263.25;5012123;28;20480;-77
2023/06/09 11:51:23;;;;;;;;;;;;;;;26.19;38.38;100271.84;5010302;28;20428;-76
2023/06/09 11:54:43;;;;;;;;;;;;;;;26.08;38.85;100277.72;4993538;28;20290;-77
2023/06/09 11:57:46;;;;;;;;;;;;;;;26.19;38.84;100276.38;4996523;28;19972;-76
2023/06/09 12:00:50;;;;;;;;;;;;;;;26.37;38.89;100267.94;4996366;28;19924;-76
2023/06/09 12:03:53;;;;;;;;;;;;;;;26.55;38.19;100264.88;4996348;28;20393;-75
2023/06/09 12:06:56;;;;;;;;;;;;;;;26.63;37.99;100270.91;5021881;28;20396;-76
2023/06/09 12:10:00;;;;;;;;;;;;;;;26.46;37.89;100264.13;5024563;28;19924;-76
2023/06/09 12:13:03;;;;;;;;;;;;;;;26.21;38.36;100274.34;5020642;28;19975;-75
2023/06/09 12:16:06;;;;;;;;;;;;;;;26.28;37.19;100259.19;5018403;28;19924;-76
2023/06/09 12:19:10;;;;;;;;;;;;;;;26.36;37.11;100253.72;5022449;28;19941;-76
2023/06/09 12:22:13;;;;;;;;;;;;;;;26.72;36.78;100266.28;5022745;28;20008;-76
2023/06/09 12:25:37;;;;;;;;;;;;;;;27.05;36.04;100258.50;5024209;28;19971;-76
2023/06/09 12:28:52;;;;;;;;;;;;;;;27.07;36.21;100248.41;5044879;28;19924;-75
2023/06/09 12:31:55;;;;;;;;;;;;;;;27.16;35.50;100251.00;5022798;28;19929;-78
2023/06/09 12:34:59;;;;;;;;;;;;;;;26.91;36.00;100248.69;5015410;28;19991;-78
2023/06/09 12:38:08;;;;;;;;;;;;;;;26.87;36.45;100242.06;5015165;28;19945;-78
2023/06/09 12:41:12;;;;;;;;;;;;;;;27.02;35.84;100245.47;5045298;28;19924;-78
2023/06/09 12:44:22;;;;;;;;;;;;;;;26.85;36.26;100247.63;5034962;28;19960;-77
2023/06/09 12:47:25;;;;;;;;;;;;;;;26.80;36.29;100243.84;5034842;28;20423;-77
2023/06/09 12:50:32;;;;;;;;;;;;;;;26.84;37.08;100237.09;5034518;28;19924;-77
2023/06/09 12:53:36;;;;;;;;;;;;;;;27.03;36.31;100233.75;5034748;28;20339;-76
2023/06/09 12:56:39;;;;;;;;;;;;;;;27.19;36.64;100250.63;5035003;28;20439;-76
2023/06/09 12:59:45;;;;;;;;;;;;;;;27.09;36.43;100238.31;5020132;28;20412;-77
2023/06/09 13:02:49;;;;;;;;;;;;;;;26.88;35.93;100238.34;5014857;28;20001;-77
2023/06/09 13:05:52;;;;;;;;;;;;;;;26.55;36.39;100232.69;5013895;28;19944;-77
2023/06/09 13:08:55;;;;;;;;;;;;;;;26.89;36.92;100234.63;5015214;28;19924;-76
2023/06/09 13:12:02;;;;;;;;;;;;;;;27.30;35.78;100229.41;5014769;28;20384;-75
2023/06/09 13:15:05;;;;;;;;;;;;;;;27.23;35.65;100225.84;5014784;28;20015;-79
2023/06/09 13:18:14;;;;;;;;;;;;;;;27.45;35.86;100229.31;5015228;28;20360;-78
2023/06/09 13:21:17;;;;;;;;;;;;;;;27.90;36.02;100227.06;5014527;28;19967;-77
2023/06/09 13:24:22;;;;;;;;;;;;;;;28.25;34.54;100217.06;5014587;28;20392;-77
2023/06/09 13:27:25;;;;;;;;;;;;;;;28.40;34.03;100222.31;5014731;28;19968;-80
2023/06/09 13:30:28;;;;;;;;;;;;;;;28.16;34.03;100220.97;5014438;28;19928;-78
2023/06/09 13:33:32;;;;;;;;;;;;;;;28.37;33.24;100221.84;5013652;28;19948;-80
2023/06/09 13:36:36;;;;;;;;;;;;;;;28.75;31.73;100222.13;5015555;28;19925;-78
2023/06/09 13:39:40;;;;;;;;;;;;;;;29.01;31.66;100213.25;5019728;28;20438;-78
2023/06/09 13:42:44;;;;;;;;;;;;;;;28.84;31.58;100203.91;5027596;28;19979;-78
2023/06/09 13:45:47;;;;;;;;;;;;;;;29.07;31.71;100206.19;5034030;28;20284;-78
2023/06/09 13:48:50;;;;;;;;;;;;;;;29.38;31.53;100200.13;5033996;28;20007;-80
2023/06/09 13:51:54;;;;;;;;;;;;;;;29.73;30.22;100197.97;5023759;28;19976;-80
2023/06/09 13:54:57;;;;;;;;;;;;;;;29.63;31.11;100197.59;5017807;28;19979;-78
2023/06/09 13:58:01;;;;;;;;;;;;;;;29.63;31.77;100194.91;5026667;28;19975;-81
2023/06/09 14:01:04;;;;;;;;;;;;;;;29.39;31.28;100191.84;5023139;28;19925;-78
2023/06/09 14:04:08;;;;;;;;;;;;;;;29.96;29.81;100189.34;5029462;28;19963;-81
2023/06/09 14:07:12;;;;;;;;;;;;;;;30.20;29.07;100179.72;5023845;28;19925;-77
2023/06/09 14:10:17;;;;;;;;;;;;;;;30.15;29.27;100181.38;5033763;28;19964;-89
2023/06/09 14:13:21;;;;;;;;;;;;;;;30.01;28.27;100172.56;5033879;28;19975;-72
2023/06/09 14:16:24;;;;;;;;;;;;;;;30.25;29.04;100181.75;5033133;28;19924;-76
2023/06/09 14:19:27;;;;;;;;;;;;;;;31.04;27.58;100175.72;5033165;28;19936;-77
2023/06/09 14:22:30;;;;;;;;;;;;;;;32.29;25.95;100173.63;5026291;28;20423;-80
2023/06/09 14:25:34;;;;;;;;;;;;;;;34.77;22.91;100163.91;5012939;28;19924;-80
2023/06/09 14:28:37;;;;;;;;;;;;;;;33.94;23.68;100166.25;5035330;28;20328;-79
2023/06/09 14:31:43;;;;;;;;;;;;;;;35.30;22.72;100163.31;5012120;28;19928;-76
2023/06/09 14:34:48;;;;;;;;;;;;;;;35.34;22.81;100172.59;5012739;28;19964;-77
2023/06/09 14:38:04;;;;;;;;;;;;;;;38.54;18.32;100160.53;5013473;28;19987;-79
2023/06/09 14:41:07;;;;;;;;;;;;;;;38.98;17.56;100159.13;5016080;28;19980;-80
2023/06/09 14:44:12;;;;;;;;;;;;;;;40.54;16.83;100151.44;5043436;28;20494;-66
2023/06/09 14:47:40;;;;;;;;;;;;;;;40.30;16.37;100154.91;5032629;28;19963;-64
2023/06/09 14:50:46;;;;;;;;;;;;;;;39.71;16.31;100155.84;5033080;28;19923;-65
2023/06/09 14:53:51;;;;;;;;;;;;;;;41.34;17.16;100142.63;5032652;28;20404;-66
2023/06/09 14:56:54;;;;;;;;;;;;;;;40.71;15.27;100149.06;5032469;28;20392;-79
2023/06/09 14:59:57;;;;;;;;;;;;;;;40.86;16.12;100148.91;5031686;28;19924;-65
2023/06/09 15:03:04;;;;;;;;;;;;;;;40.58;16.05;100142.31;5032724;28;20428;-66
2023/06/09 15:06:09;;;;;;;;;;;;;;;41.03;16.13;100137.50;5032593;28;20383;-65
2023/06/09 15:09:13;;;;;;;;;;;;;;;40.81;16.46;100132.53;5032552;28;19923;-65
2023/06/09 15:12:17;;;;;;;;;;;;;;;40.14;16.90;100136.94;5031148;28;20447;-66
2023/06/09 15:15:27;;;;;;;;;;;;;;;40.52;17.35;100131.69;5031098;28;20288;-68
2023/06/09 15:18:42;;;;;;;;;;;;;;;34.93;20.86;100133.16;5030470;28;20396;-68
2023/06/09 15:21:51;;;;;;;;;;;;;;;37.64;19.59;100136.38;5031573;28;19928;-67
2023/06/09 15:24:57;;;;;;;;;;;;;;;37.44;18.71;100136.31;5032466;28;20004;-67
2023/06/09 15:28:04;;;;;;;;;;;;;;;35.90;21.87;100144.44;5033232;28;19924;-68
2023/06/09 15:31:08;;;;;;;;;;;;;;;36.12;21.33;100136.25;5036311;28;20014;-68
2023/06/09 15:34:16;;;;;;;;;;;;;;;36.86;19.97;100136.28;5035634;28;19923;-66
2023/06/09 15:37:21;;;;;;;;;;;;;;;37.41;19.47;100142.31;5035660;28;20327;-66
2023/06/09 15:40:25;;;;;;;;;;;;;;;37.42;19.92;100136.56;5036278;28;20050;-67
2023/06/09 15:43:37;;;;;;;;;;;;;;;38.15;19.35;100133.75;5036201;28;19940;-67
2023/06/09 15:46:43;;;;;;;;;;;;;;;39.81;19.05;100133.91;5036517;28;19940;-66
2023/06/09 15:49:47;;;;;;;;;;;;;;;38.26;18.27;100120.94;5035607;28;19943;-67
2023/06/09 15:52:51;;;;;;;;;;;;;;;37.30;19.66;100124.25;5035088;28;19927;-69
2023/06/09 15:55:55;;;;;;;;;;;;;;;37.10;19.57;100127.72;5036141;28;20022;-67